createdAt,value
2022-08-26T00:00:00.369Z,14.09
2022-08-26T00:01:00.496Z,14.06
2022-08-26T00:02:00.357Z,14.06
2022-08-26T00:03:00.382Z,14.06
2022-08-26T00:04:00.409Z,14.06
2022-08-26T00:05:00.273Z,14.06
2022-08-26T00:06:00.303Z,14.01
2022-08-26T00:07:00.438Z,14.01
2022-08-26T00:08:00.315Z,14.01
2022-08-26T00:09:00.348Z,14.01
2022-08-26T00:10:00.276Z,14.01
2022-08-26T00:11:00.321Z,13.95
2022-08-26T00:12:00.275Z,13.95
2022-08-26T00:13:00.327Z,13.95
2022-08-26T00:14:00.331Z,13.95
2022-08-26T00:15:00.405Z,13.95
2022-08-26T00:16:00.595Z,13.92
2022-08-26T00:17:00.421Z,13.92
2022-08-26T00:18:00.289Z,13.92
2022-08-26T00:23:00.870Z,13.89
2022-08-26T00:24:00.275Z,13.89
2022-08-26T00:25:00.392Z,13.89
2022-08-26T00:26:00.414Z,13.88
2022-08-26T00:27:00.323Z,13.88
2022-08-26T00:28:00.491Z,13.88
2022-08-26T00:29:00.419Z,13.88
2022-08-26T00:30:01.378Z,13.88
2022-08-26T00:31:00.369Z,13.87
2022-08-26T00:32:00.317Z,13.87
2022-08-26T00:34:00.282Z,13.87
2022-08-26T00:35:00.409Z,13.87
2022-08-26T00:36:00.285Z,13.74
2022-08-26T00:37:00.289Z,13.74
2022-08-26T00:38:01.282Z,13.74
2022-08-26T00:39:00.462Z,13.74
2022-08-26T00:40:00.754Z,13.74
2022-08-26T00:41:00.328Z,13.69
2022-08-26T00:42:00.272Z,13.69
2022-08-26T00:43:01.336Z,13.69
2022-08-26T00:44:00.587Z,13.69
2022-08-26T00:45:00.580Z,13.69
2022-08-26T00:46:06.254Z,13.65
2022-08-26T00:47:01.740Z,13.65
2022-08-26T00:48:02.030Z,13.65
2022-08-26T00:49:03.969Z,13.65
2022-08-26T00:50:02.245Z,13.65
2022-08-26T00:51:02.960Z,13.61
2022-08-26T00:52:02.094Z,13.61
2022-08-26T00:53:01.570Z,13.61
2022-08-26T00:54:03.627Z,13.61
2022-08-26T00:55:07.691Z,13.61
2022-08-26T00:56:06.255Z,13.59
2022-08-26T00:57:04.979Z,13.59
2022-08-26T00:58:01.001Z,13.59
2022-08-26T00:59:06.667Z,13.59
2022-08-26T01:00:01.607Z,13.59
2022-08-26T01:01:00.547Z,13.58
2022-08-26T01:02:02.804Z,13.58
2022-08-26T01:03:01.056Z,13.58
2022-08-26T01:04:00.678Z,13.58
2022-08-26T01:05:01.682Z,13.58
2022-08-26T01:06:00.292Z,13.58
2022-08-26T01:07:00.995Z,13.58
2022-08-26T01:08:00.347Z,13.58
2022-08-26T01:09:00.409Z,13.58
2022-08-26T01:10:02.161Z,13.58
2022-08-26T01:11:01.425Z,13.54
2022-08-26T01:12:01.453Z,13.54
2022-08-26T01:13:03.543Z,13.54
2022-08-26T01:14:01.911Z,13.54
2022-08-26T01:15:00.984Z,13.54
2022-08-26T01:16:01.574Z,13.50
2022-08-26T01:17:01.395Z,13.50
2022-08-26T01:18:02.275Z,13.50
2022-08-26T01:19:05.351Z,13.50
2022-08-26T01:20:05.247Z,13.50
2022-08-26T01:21:07.767Z,13.48
2022-08-26T01:22:04.411Z,13.48
2022-08-26T01:23:03.262Z,13.48
2022-08-26T01:24:00.328Z,13.48
2022-08-26T01:25:00.914Z,13.48
2022-08-26T01:26:03.807Z,13.45
2022-08-26T01:27:02.298Z,13.45
2022-08-26T01:28:02.216Z,13.45
2022-08-26T01:29:01.742Z,13.45
2022-08-26T01:30:01.047Z,13.45
2022-08-26T01:31:01.448Z,13.40
2022-08-26T01:32:01.523Z,13.40
2022-08-26T01:33:02.005Z,13.40
2022-08-26T01:34:10.195Z,13.40
2022-08-26T01:35:00.924Z,13.40
2022-08-26T01:36:00.425Z,13.28
2022-08-26T01:37:02.330Z,13.28
2022-08-26T01:38:00.293Z,13.28
2022-08-26T01:39:00.411Z,13.28
2022-08-26T01:40:00.517Z,13.28
2022-08-26T01:41:00.738Z,13.30
2022-08-26T01:42:03.127Z,13.30
2022-08-26T01:43:01.208Z,13.30
2022-08-26T01:44:00.902Z,13.30
2022-08-26T01:45:04.708Z,13.30
2022-08-26T01:46:01.376Z,13.29
2022-08-26T01:47:00.362Z,13.29
2022-08-26T01:48:02.172Z,13.29
2022-08-26T01:49:03.367Z,13.29
2022-08-26T01:50:02.319Z,13.29
2022-08-26T01:51:02.192Z,13.24
2022-08-26T01:52:01.671Z,13.24
2022-08-26T01:53:02.142Z,13.24
2022-08-26T01:54:00.336Z,13.24
2022-08-26T01:55:00.793Z,13.24
2022-08-26T01:56:01.357Z,13.20
2022-08-26T01:57:00.568Z,13.20
2022-08-26T01:58:02.493Z,13.20
2022-08-26T01:59:01.665Z,13.20
2022-08-26T02:00:01.546Z,13.20
2022-08-26T02:01:01.125Z,13.19
2022-08-26T02:02:00.619Z,13.19
2022-08-26T02:03:01.654Z,13.19
2022-08-26T02:04:07.048Z,13.19
2022-08-26T02:05:02.410Z,13.19
2022-08-26T02:06:02.858Z,13.12
2022-08-26T02:07:02.903Z,13.12
2022-08-26T02:08:01.826Z,13.12
2022-08-26T02:09:01.011Z,13.12
2022-08-26T02:10:00.271Z,13.12
2022-08-26T02:11:00.409Z,13.08
2022-08-26T02:12:00.678Z,13.08
2022-08-26T02:13:00.429Z,13.08
2022-08-26T02:14:02.793Z,13.08
2022-08-26T02:15:02.739Z,13.08
2022-08-26T02:16:01.354Z,13.01
2022-08-26T02:17:00.401Z,13.01
2022-08-26T02:18:02.211Z,13.01
2022-08-26T02:19:00.785Z,13.01
2022-08-26T02:20:01.120Z,13.01
2022-08-26T02:21:00.268Z,13.01
2022-08-26T02:22:03.017Z,13.01
2022-08-26T02:23:00.274Z,13.01
2022-08-26T02:24:09.288Z,13.01
2022-08-26T02:25:08.676Z,13.01
2022-08-26T02:26:10.184Z,13.01
2022-08-26T02:27:00.305Z,13.01
2022-08-26T02:28:00.371Z,13.01
2022-08-26T02:29:04.138Z,13.01
2022-08-26T02:30:10.175Z,13.01
2022-08-26T02:31:00.414Z,13.00
2022-08-26T02:32:01.406Z,13.00
2022-08-26T02:33:01.169Z,13.00
2022-08-26T02:34:08.602Z,13.00
2022-08-26T02:35:00.305Z,13.00
2022-08-26T02:36:00.277Z,12.99
2022-08-26T02:37:02.299Z,12.99
2022-08-26T02:38:00.264Z,12.99
2022-08-26T02:39:00.281Z,12.99
2022-08-26T02:40:01.053Z,12.99
2022-08-26T02:41:00.731Z,12.98
2022-08-26T02:42:00.251Z,12.98
2022-08-26T02:43:00.384Z,12.98
2022-08-26T02:44:00.307Z,12.98
2022-08-26T02:45:00.494Z,12.98
2022-08-26T02:46:02.182Z,13.00
2022-08-26T02:47:00.599Z,13.00
2022-08-26T02:48:07.248Z,13.00
2022-08-26T02:49:00.380Z,13.00
2022-08-26T02:50:00.255Z,13.00
2022-08-26T02:51:00.310Z,13.00
2022-08-26T02:52:00.277Z,13.00
2022-08-26T02:53:00.306Z,13.00
2022-08-26T02:54:00.282Z,13.00
2022-08-26T02:55:00.363Z,13.00
2022-08-26T02:56:00.311Z,12.98
2022-08-26T02:57:00.655Z,12.98
2022-08-26T02:58:00.305Z,12.98
2022-08-26T02:59:00.272Z,12.98
2022-08-26T03:00:00.479Z,12.98
2022-08-26T03:01:00.426Z,12.95
2022-08-26T03:02:00.510Z,12.95
2022-08-26T03:03:00.258Z,12.95
2022-08-26T03:04:01.886Z,12.95
2022-08-26T03:05:01.751Z,12.95
2022-08-26T03:06:00.275Z,12.94
2022-08-26T03:07:00.353Z,12.94
2022-08-26T03:08:00.547Z,12.94
2022-08-26T03:09:00.304Z,12.94
2022-08-26T03:10:00.373Z,12.94
2022-08-26T03:11:01.525Z,12.93
2022-08-26T03:12:00.622Z,12.93
2022-08-26T03:13:00.375Z,12.93
2022-08-26T03:14:00.423Z,12.93
2022-08-26T03:15:00.278Z,12.93
2022-08-26T03:16:00.530Z,12.95
2022-08-26T03:17:00.275Z,12.95
2022-08-26T03:18:00.261Z,12.95
2022-08-26T03:19:00.785Z,12.95
2022-08-26T03:20:00.782Z,12.95
2022-08-26T03:21:04.273Z,12.97
2022-08-26T03:22:00.677Z,12.97
2022-08-26T03:23:00.381Z,12.97
2022-08-26T03:24:00.492Z,12.97
2022-08-26T03:25:01.153Z,12.97
2022-08-26T03:26:00.293Z,13.02
2022-08-26T03:27:00.270Z,13.02
2022-08-26T03:28:00.308Z,13.02
2022-08-26T03:29:00.293Z,13.02
2022-08-26T03:30:00.420Z,13.02
2022-08-26T03:31:00.339Z,13.01
2022-08-26T03:32:00.258Z,13.01
2022-08-26T03:33:00.489Z,13.01
2022-08-26T03:34:00.358Z,13.01
2022-08-26T03:35:00.320Z,13.01
2022-08-26T03:36:00.289Z,13.02
2022-08-26T03:37:00.418Z,13.02
2022-08-26T03:38:01.162Z,13.02
2022-08-26T03:39:00.303Z,13.02
2022-08-26T03:40:00.438Z,13.02
2022-08-26T03:41:00.270Z,13.08
2022-08-26T03:42:00.311Z,13.08
2022-08-26T03:43:00.935Z,13.08
2022-08-26T03:44:01.887Z,13.08
2022-08-26T03:45:00.353Z,13.08
2022-08-26T03:46:04.226Z,13.12
2022-08-26T03:47:00.264Z,13.12
2022-08-26T03:48:00.321Z,13.12
2022-08-26T03:49:01.274Z,13.12
2022-08-26T03:50:00.574Z,13.12
2022-08-26T03:51:01.368Z,13.15
2022-08-26T03:52:01.109Z,13.15
2022-08-26T03:53:00.667Z,13.15
2022-08-26T03:54:00.363Z,13.15
2022-08-26T03:55:00.321Z,13.15
2022-08-26T03:56:00.267Z,13.18
2022-08-26T03:57:00.473Z,13.18
2022-08-26T03:58:00.277Z,13.18
2022-08-26T03:59:00.279Z,13.18
2022-08-26T04:00:00.495Z,13.18
2022-08-26T04:01:00.277Z,13.21
2022-08-26T04:02:00.373Z,13.21
2022-08-26T04:03:00.441Z,13.21
2022-08-26T04:04:00.823Z,13.21
2022-08-26T04:05:00.294Z,13.21
2022-08-26T04:06:00.301Z,13.26
2022-08-26T04:07:00.370Z,13.26
2022-08-26T04:08:00.251Z,13.26
2022-08-26T04:09:01.587Z,13.26
2022-08-26T04:10:00.315Z,13.26
2022-08-26T04:11:00.321Z,13.28
2022-08-26T04:12:00.262Z,13.28
2022-08-26T04:13:00.259Z,13.28
2022-08-26T04:14:01.522Z,13.28
2022-08-26T04:15:00.633Z,13.28
2022-08-26T04:16:00.405Z,13.20
2022-08-26T04:17:00.263Z,13.20
2022-08-26T04:18:00.275Z,13.20
2022-08-26T04:19:00.335Z,13.20
2022-08-26T04:20:00.264Z,13.20
2022-08-26T04:21:00.272Z,13.16
2022-08-26T04:22:00.346Z,13.16
2022-08-26T04:23:00.417Z,13.16
2022-08-26T04:24:00.303Z,13.16
2022-08-26T04:25:00.380Z,13.16
2022-08-26T04:26:00.795Z,13.16
2022-08-26T04:27:00.267Z,13.16
2022-08-26T04:28:00.281Z,13.16
2022-08-26T04:29:00.261Z,13.16
2022-08-26T04:30:00.275Z,13.16
2022-08-26T04:31:00.366Z,13.14
2022-08-26T04:32:00.286Z,13.14
2022-08-26T04:33:00.358Z,13.14
2022-08-26T04:34:01.083Z,13.14
2022-08-26T04:35:00.774Z,13.14
2022-08-26T04:36:01.754Z,13.09
2022-08-26T04:37:00.340Z,13.09
2022-08-26T04:38:00.404Z,13.09
2022-08-26T04:39:00.831Z,13.09
2022-08-26T04:40:00.653Z,13.09
2022-08-26T04:41:00.706Z,13.06
2022-08-26T04:42:00.540Z,13.06
2022-08-26T04:43:00.259Z,13.06
2022-08-26T04:44:01.087Z,13.06
2022-08-26T04:45:00.815Z,13.06
2022-08-26T04:46:01.814Z,13.09
2022-08-26T04:47:00.311Z,13.09
2022-08-26T04:48:00.261Z,13.09
2022-08-26T04:49:00.281Z,13.09
2022-08-26T04:50:00.269Z,13.09
2022-08-26T04:51:00.468Z,13.10
2022-08-26T04:52:00.294Z,13.10
2022-08-26T04:53:00.270Z,13.10
2022-08-26T04:54:00.698Z,13.10
2022-08-26T04:55:00.283Z,13.10
2022-08-26T04:56:00.659Z,13.11
2022-08-26T04:57:00.274Z,13.11
2022-08-26T04:58:00.334Z,13.11
2022-08-26T04:59:00.938Z,13.11
2022-08-26T05:00:00.397Z,13.11
2022-08-26T05:01:00.364Z,13.10
2022-08-26T05:02:00.348Z,13.10
2022-08-26T05:03:00.363Z,13.10
2022-08-26T05:04:01.149Z,13.10
2022-08-26T05:05:00.439Z,13.10
2022-08-26T05:06:02.468Z,13.05
2022-08-26T05:07:02.864Z,13.05
2022-08-26T05:08:00.347Z,13.05
2022-08-26T05:09:00.461Z,13.05
2022-08-26T05:10:01.052Z,13.05
2022-08-26T05:11:02.975Z,13.06
2022-08-26T05:12:00.325Z,13.06
2022-08-26T05:13:00.431Z,13.06
2022-08-26T05:14:02.303Z,13.06
2022-08-26T05:15:00.335Z,13.06
2022-08-26T05:16:02.950Z,13.08
2022-08-26T05:17:00.365Z,13.08
2022-08-26T05:18:01.550Z,13.08
2022-08-26T05:19:00.333Z,13.08
2022-08-26T05:20:00.460Z,13.08
2022-08-26T05:21:00.678Z,13.12
2022-08-26T05:22:00.343Z,13.12
2022-08-26T05:23:00.642Z,13.12
2022-08-26T05:24:00.358Z,13.12
2022-08-26T05:25:00.488Z,13.12
2022-08-26T05:26:00.639Z,13.14
2022-08-26T05:27:00.325Z,13.14
2022-08-26T05:28:00.351Z,13.14
2022-08-26T05:29:00.353Z,13.14
2022-08-26T05:30:00.421Z,13.14
2022-08-26T05:31:00.820Z,13.10
2022-08-26T05:32:00.332Z,13.10
2022-08-26T05:33:00.510Z,13.10
2022-08-26T05:34:03.611Z,13.10
2022-08-26T05:35:00.435Z,13.10
2022-08-26T05:36:04.705Z,13.03
2022-08-26T05:37:00.329Z,13.03
2022-08-26T05:38:01.073Z,13.03
2022-08-26T05:39:01.026Z,13.03
2022-08-26T05:40:02.526Z,13.03
2022-08-26T05:41:00.350Z,13.01
2022-08-26T05:42:00.384Z,13.01
2022-08-26T05:43:00.378Z,13.01
2022-08-26T05:44:01.024Z,13.01
2022-08-26T05:45:00.652Z,13.01
2022-08-26T05:46:05.712Z,12.98
2022-08-26T05:47:00.381Z,12.98
2022-08-26T05:48:00.338Z,12.98
2022-08-26T05:49:00.649Z,12.98
2022-08-26T05:50:00.339Z,12.98
2022-08-26T05:51:01.847Z,13.00
2022-08-26T05:52:00.360Z,13.00
2022-08-26T05:53:00.323Z,13.00
2022-08-26T05:54:01.179Z,13.00
2022-08-26T05:55:00.331Z,13.00
2022-08-26T05:56:01.754Z,13.01
2022-08-26T05:57:00.334Z,13.01
2022-08-26T05:58:00.380Z,13.01
2022-08-26T05:59:00.353Z,13.01
2022-08-26T06:00:00.409Z,13.01
2022-08-26T06:01:03.259Z,13.02
2022-08-26T06:02:01.140Z,13.02
2022-08-26T06:03:00.502Z,13.02
2022-08-26T06:04:01.913Z,13.02
2022-08-26T06:05:00.378Z,13.02
2022-08-26T06:06:02.487Z,13.08
2022-08-26T06:07:00.368Z,13.08
2022-08-26T06:08:00.309Z,13.08
2022-08-26T06:09:01.499Z,13.08
2022-08-26T06:10:28.145Z,13.08
2022-08-26T06:11:02.348Z,13.15
2022-08-26T06:12:00.332Z,13.15
2022-08-26T06:13:09.099Z,13.15
2022-08-26T06:14:03.722Z,13.15
2022-08-26T06:15:00.317Z,13.15
2022-08-26T06:16:02.458Z,13.36
2022-08-26T06:17:00.324Z,13.36
2022-08-26T06:18:00.334Z,13.36
2022-08-26T06:19:01.244Z,13.36
2022-08-26T06:20:00.433Z,13.36
2022-08-26T06:21:01.232Z,13.45
2022-08-26T06:22:00.420Z,13.45
2022-08-26T06:23:00.325Z,13.45
2022-08-26T06:24:02.887Z,13.45
2022-08-26T06:25:00.379Z,13.45
2022-08-26T06:26:00.474Z,13.56
2022-08-26T06:27:01.714Z,13.56
2022-08-26T06:28:00.347Z,13.56
2022-08-26T06:29:00.635Z,13.56
2022-08-26T06:30:00.348Z,13.56
2022-08-26T06:31:00.841Z,13.67
2022-08-26T06:32:00.969Z,13.67
2022-08-26T06:33:00.310Z,13.67
2022-08-26T06:34:00.958Z,13.67
2022-08-26T06:35:00.335Z,13.67
2022-08-26T06:36:00.504Z,13.75
2022-08-26T06:37:01.404Z,13.75
2022-08-26T06:38:00.320Z,13.75
2022-08-26T06:39:03.871Z,13.75
2022-08-26T06:40:00.398Z,13.75
2022-08-26T06:41:00.356Z,13.71
2022-08-26T06:42:00.566Z,13.71
2022-08-26T06:43:00.333Z,13.71
2022-08-26T06:44:01.141Z,13.71
2022-08-26T06:45:00.358Z,13.71
2022-08-26T06:46:01.458Z,13.74
2022-08-26T06:47:00.445Z,13.74
2022-08-26T06:48:00.473Z,13.74
2022-08-26T06:49:00.317Z,13.74
2022-08-26T06:50:00.334Z,13.74
2022-08-26T06:51:02.634Z,13.84
2022-08-26T06:52:00.358Z,13.84
2022-08-26T06:53:00.343Z,13.84
2022-08-26T06:54:01.273Z,13.84
2022-08-26T06:55:00.421Z,13.84
2022-08-26T06:56:02.082Z,14.01
2022-08-26T06:57:00.350Z,14.01
2022-08-26T06:58:00.337Z,14.01
2022-08-26T06:59:00.484Z,14.01
2022-08-26T07:00:00.455Z,14.01
2022-08-26T07:01:03.724Z,14.10
2022-08-26T07:02:00.307Z,14.10
2022-08-26T07:03:00.350Z,14.10
2022-08-26T07:04:02.460Z,14.10
2022-08-26T07:05:00.278Z,14.10
2022-08-26T07:06:01.499Z,14.22
2022-08-26T07:07:00.271Z,14.22
2022-08-26T07:08:00.287Z,14.22
2022-08-26T07:09:03.427Z,14.22
2022-08-26T07:10:00.265Z,14.22
2022-08-26T07:11:04.664Z,14.29
2022-08-26T07:12:00.343Z,14.29
2022-08-26T07:13:00.276Z,14.29
2022-08-26T07:14:00.308Z,14.29
2022-08-26T07:15:00.407Z,14.29
2022-08-26T07:16:02.859Z,14.46
2022-08-26T07:17:00.264Z,14.46
2022-08-26T07:18:00.944Z,14.46
2022-08-26T07:19:01.220Z,14.46
2022-08-26T07:20:00.366Z,14.46
2022-08-26T07:21:01.438Z,14.63
2022-08-26T07:22:01.376Z,14.63
2022-08-26T07:23:00.259Z,14.63
2022-08-26T07:24:01.258Z,14.63
2022-08-26T07:25:00.291Z,14.63
2022-08-26T07:26:04.489Z,14.78
2022-08-26T07:27:01.366Z,14.78
2022-08-26T07:28:00.276Z,14.78
2022-08-26T07:29:00.921Z,14.78
2022-08-26T07:30:00.269Z,14.78
2022-08-26T07:31:09.595Z,14.91
2022-08-26T07:32:01.077Z,14.91
2022-08-26T07:33:00.269Z,14.91
2022-08-26T07:34:00.663Z,14.91
2022-08-26T07:35:00.275Z,14.91
2022-08-26T07:36:00.323Z,15.03
2022-08-26T07:37:00.448Z,15.03
2022-08-26T07:38:00.331Z,15.03
2022-08-26T07:39:00.346Z,15.03
2022-08-26T07:40:00.417Z,15.03
2022-08-26T07:41:00.286Z,15.15
2022-08-26T07:42:00.638Z,15.15
2022-08-26T07:43:00.916Z,15.15
2022-08-26T07:44:00.262Z,15.15
2022-08-26T07:45:00.554Z,15.15
2022-08-26T07:46:00.333Z,15.33
2022-08-26T07:47:00.290Z,15.33
2022-08-26T07:48:00.270Z,15.33
2022-08-26T07:49:00.318Z,15.33
2022-08-26T07:50:00.308Z,15.33
2022-08-26T07:51:00.315Z,15.55
2022-08-26T07:52:01.733Z,15.55
2022-08-26T07:53:00.614Z,15.55
2022-08-26T07:54:00.330Z,15.55
2022-08-26T07:55:00.878Z,15.55
2022-08-26T07:56:00.419Z,15.83
2022-08-26T07:57:00.267Z,15.83
2022-08-26T07:58:00.467Z,15.83
2022-08-26T07:59:00.567Z,15.83
2022-08-26T08:00:00.804Z,15.83
2022-08-26T08:01:00.333Z,16.06
2022-08-26T08:02:00.402Z,16.06
2022-08-26T08:03:01.250Z,16.06
2022-08-26T08:04:00.378Z,16.06
2022-08-26T08:05:00.411Z,16.06
2022-08-26T08:06:00.341Z,16.33
2022-08-26T08:07:00.265Z,16.33
2022-08-26T08:08:27.415Z,16.33
2022-08-26T08:09:00.293Z,16.33
2022-08-26T08:10:00.272Z,16.33
2022-08-26T08:11:00.793Z,16.43
2022-08-26T08:12:00.267Z,16.43
2022-08-26T08:13:00.298Z,16.43
2022-08-26T08:14:00.799Z,16.43
2022-08-26T08:15:00.341Z,16.43
2022-08-26T08:16:00.300Z,16.57
2022-08-26T08:17:01.047Z,16.57
2022-08-26T08:18:01.018Z,16.57
2022-08-26T08:19:00.339Z,16.57
2022-08-26T08:20:00.280Z,16.57
2022-08-26T08:21:21.118Z,16.75
2022-08-26T08:22:00.319Z,16.75
2022-08-26T08:23:01.072Z,16.75
2022-08-26T08:24:00.266Z,16.75
2022-08-26T08:25:00.292Z,16.75
2022-08-26T08:26:04.546Z,17.01
2022-08-26T08:27:00.471Z,17.01
2022-08-26T08:28:00.427Z,17.01
2022-08-26T08:29:00.281Z,17.01
2022-08-26T08:30:00.418Z,17.01
2022-08-26T08:31:00.417Z,17.20
2022-08-26T08:32:00.343Z,17.20
2022-08-26T08:33:00.269Z,17.20
2022-08-26T08:34:00.599Z,17.20
2022-08-26T08:35:00.981Z,17.20
2022-08-26T08:36:00.409Z,17.36
2022-08-26T08:37:00.299Z,17.36
2022-08-26T08:38:00.300Z,17.36
2022-08-26T08:39:00.259Z,17.36
2022-08-26T08:40:00.441Z,17.36
2022-08-26T08:41:00.912Z,17.48
2022-08-26T08:42:10.172Z,17.48
2022-08-26T08:43:10.461Z,17.48
2022-08-26T08:44:00.662Z,17.48
2022-08-26T08:45:03.793Z,17.48
2022-08-26T08:46:04.512Z,17.56
2022-08-26T08:47:02.783Z,17.56
2022-08-26T08:48:03.553Z,17.56
2022-08-26T08:49:00.369Z,17.56
2022-08-26T08:50:09.460Z,17.56
2022-08-26T08:51:06.677Z,17.62
2022-08-26T08:52:04.220Z,17.62
2022-08-26T08:53:10.167Z,17.62
2022-08-26T08:54:01.099Z,17.62
2022-08-26T08:55:01.110Z,17.62
2022-08-26T08:56:01.263Z,17.72
2022-08-26T08:57:05.046Z,17.72
2022-08-26T08:58:02.116Z,17.72
2022-08-26T08:59:03.603Z,17.72
2022-08-26T09:00:04.021Z,17.72
2022-08-26T09:01:02.963Z,17.91
2022-08-26T09:02:09.056Z,17.91
2022-08-26T09:03:04.435Z,17.91
2022-08-26T09:04:10.211Z,17.91
2022-08-26T09:05:06.707Z,17.91
2022-08-26T09:06:00.527Z,18.01
2022-08-26T09:07:01.570Z,18.01
2022-08-26T09:08:03.420Z,18.01
2022-08-26T09:09:01.492Z,18.01
2022-08-26T09:10:03.743Z,18.01
2022-08-26T09:11:01.144Z,18.11
2022-08-26T09:12:01.166Z,18.11
2022-08-26T09:13:02.607Z,18.11
2022-08-26T09:14:00.525Z,18.11
2022-08-26T09:15:06.473Z,18.11
2022-08-26T09:16:03.640Z,18.28
2022-08-26T09:17:10.234Z,18.28
2022-08-26T09:18:01.261Z,18.28
2022-08-26T09:19:01.289Z,18.28
2022-08-26T09:20:10.208Z,18.28
2022-08-26T09:21:01.717Z,18.43
2022-08-26T09:22:00.451Z,18.43
2022-08-26T09:23:00.283Z,18.43
2022-08-26T09:24:00.328Z,18.43
2022-08-26T09:25:00.627Z,18.43
2022-08-26T09:26:01.621Z,18.55
2022-08-26T09:27:00.492Z,18.55
2022-08-26T09:28:00.306Z,18.55
2022-08-26T09:29:02.395Z,18.55
2022-08-26T09:30:01.249Z,18.55
2022-08-26T09:31:11.208Z,18.65
2022-08-26T09:32:10.165Z,18.65
2022-08-26T09:33:02.971Z,18.65
2022-08-26T09:34:10.175Z,18.65
2022-08-26T09:35:03.453Z,18.65
2022-08-26T09:38:12.322Z,18.70
2022-08-26T09:39:00.404Z,18.70
2022-08-26T09:40:10.278Z,18.70
2022-08-26T09:41:03.411Z,18.71
2022-08-26T09:42:10.198Z,18.71
2022-08-26T09:43:07.919Z,18.71
2022-08-26T09:44:03.624Z,18.71
2022-08-26T09:45:01.449Z,18.71
2022-08-26T09:46:10.269Z,18.71
2022-08-26T09:47:02.323Z,18.71
2022-08-26T09:48:01.363Z,18.71
2022-08-26T09:49:10.212Z,18.71
2022-08-26T09:50:03.374Z,18.71
2022-08-26T09:51:01.435Z,18.82
2022-08-26T09:52:07.865Z,18.82
2022-08-26T09:53:12.840Z,18.82
2022-08-26T09:54:01.098Z,18.82
2022-08-26T09:55:00.307Z,18.82
2022-08-26T09:56:10.203Z,18.82
2022-08-26T09:57:10.187Z,18.82
2022-08-26T09:58:07.752Z,18.82
2022-08-26T09:59:01.194Z,18.82
2022-08-26T10:00:01.295Z,18.82
2022-08-26T10:01:01.498Z,18.94
2022-08-26T10:02:12.097Z,18.94
2022-08-26T10:03:02.317Z,18.94
2022-08-26T10:04:10.307Z,18.94
2022-08-26T10:05:09.087Z,18.94
2022-08-26T10:06:00.365Z,19.08
2022-08-26T10:07:01.833Z,19.08
2022-08-26T10:08:10.222Z,19.08
2022-08-26T10:09:02.751Z,19.08
2022-08-26T10:10:01.713Z,19.08
2022-08-26T10:11:01.290Z,19.12
2022-08-26T10:12:05.346Z,19.12
2022-08-26T10:13:00.290Z,19.12
2022-08-26T10:14:10.213Z,19.12
2022-08-26T10:15:02.575Z,19.12
2022-08-26T10:16:00.314Z,19.20
2022-08-26T10:17:07.068Z,19.20
2022-08-26T10:18:03.177Z,19.20
2022-08-26T10:19:05.737Z,19.20
2022-08-26T10:20:04.223Z,19.20
2022-08-26T10:21:07.283Z,19.36
2022-08-26T10:22:05.443Z,19.36
2022-08-26T10:23:06.278Z,19.36
2022-08-26T10:24:01.523Z,19.36
2022-08-26T10:25:02.729Z,19.36
2022-08-26T10:26:07.044Z,19.52
2022-08-26T10:27:04.666Z,19.52
2022-08-26T10:28:01.496Z,19.52
2022-08-26T10:29:10.212Z,19.52
2022-08-26T10:30:04.783Z,19.52
2022-08-26T10:31:03.495Z,19.69
2022-08-26T10:32:03.742Z,19.69
2022-08-26T10:33:05.357Z,19.69
2022-08-26T10:34:00.789Z,19.69
2022-08-26T10:35:00.952Z,19.69
2022-08-26T10:36:02.616Z,19.83
2022-08-26T10:37:14.208Z,19.83
2022-08-26T10:38:03.435Z,19.83
2022-08-26T10:39:03.203Z,19.83
2022-08-26T10:40:06.154Z,19.83
2022-08-26T10:41:03.457Z,19.92
2022-08-26T10:42:07.649Z,19.92
2022-08-26T10:43:09.906Z,19.92
2022-08-26T10:44:01.658Z,19.92
2022-08-26T10:45:06.297Z,19.92
2022-08-26T10:46:03.285Z,20.04
2022-08-26T10:47:10.197Z,20.04
2022-08-26T10:48:04.142Z,20.04
2022-08-26T10:49:06.598Z,20.04
2022-08-26T10:50:02.931Z,20.04
2022-08-26T10:51:00.731Z,20.18
2022-08-26T10:52:15.141Z,20.18
2022-08-26T10:53:10.202Z,20.18
2022-08-26T10:54:05.470Z,20.18
2022-08-26T10:55:06.335Z,20.18
2022-08-26T10:56:00.288Z,20.19
2022-08-26T10:57:10.206Z,20.19
2022-08-26T10:58:10.589Z,20.19
2022-08-26T10:59:12.454Z,20.19
2022-08-26T11:00:06.407Z,20.19
2022-08-26T11:01:10.761Z,20.20
2022-08-26T11:02:10.240Z,20.20
2022-08-26T11:03:13.683Z,20.20
2022-08-26T11:04:10.315Z,20.20
2022-08-26T11:05:03.454Z,20.20
2022-08-26T11:06:10.199Z,20.30
2022-08-26T11:07:10.199Z,20.30
2022-08-26T11:08:10.390Z,20.30
2022-08-26T11:09:02.179Z,20.30
2022-08-26T11:10:04.762Z,20.30
2022-08-26T11:11:00.317Z,20.27
2022-08-26T11:12:03.888Z,20.27
2022-08-26T11:13:01.721Z,20.27
2022-08-26T11:14:01.752Z,20.27
2022-08-26T11:15:02.651Z,20.27
2022-08-26T11:16:01.253Z,20.26
2022-08-26T11:17:00.423Z,20.26
2022-08-26T11:18:02.015Z,20.26
2022-08-26T11:19:00.575Z,20.26
2022-08-26T11:20:02.137Z,20.26
2022-08-26T11:21:00.420Z,20.21
2022-08-26T11:22:05.195Z,20.21
2022-08-26T11:23:10.187Z,20.21
2022-08-26T11:24:00.315Z,20.21
2022-08-26T11:25:01.750Z,20.21
2022-08-26T11:26:07.770Z,20.22
2022-08-26T11:27:00.325Z,20.22
2022-08-26T11:28:00.809Z,20.22
2022-08-26T11:29:00.348Z,20.22
2022-08-26T11:30:02.278Z,20.22
2022-08-26T11:31:01.303Z,20.45
2022-08-26T11:32:00.325Z,20.45
2022-08-26T11:33:00.366Z,20.45
2022-08-26T11:34:01.705Z,20.45
2022-08-26T11:35:03.542Z,20.45
2022-08-26T11:36:00.427Z,20.53
2022-08-26T11:37:01.432Z,20.53
2022-08-26T11:38:10.376Z,20.53
2022-08-26T11:39:02.801Z,20.53
2022-08-26T11:40:02.919Z,20.53
2022-08-26T11:41:06.048Z,20.71
2022-08-26T11:42:11.105Z,20.71
2022-08-26T11:43:10.192Z,20.71
2022-08-26T11:44:01.232Z,20.71
2022-08-26T11:45:05.616Z,20.71
2022-08-26T11:46:03.358Z,20.86
2022-08-26T11:47:00.786Z,20.86
2022-08-26T11:48:10.189Z,20.86
2022-08-26T11:49:01.444Z,20.86
2022-08-26T11:50:07.966Z,20.86
2022-08-26T11:51:03.341Z,20.97
2022-08-26T11:52:09.497Z,20.97
2022-08-26T11:53:01.457Z,20.97
2022-08-26T11:54:10.229Z,20.97
2022-08-26T11:55:02.238Z,20.97
2022-08-26T11:56:02.929Z,21.04
2022-08-26T11:57:04.851Z,21.04
2022-08-26T11:58:01.990Z,21.04
2022-08-26T11:59:06.405Z,21.04
2022-08-26T12:00:01.182Z,21.04
2022-08-26T12:01:03.626Z,20.92
2022-08-26T12:02:00.459Z,20.92
2022-08-26T12:03:03.767Z,20.92
2022-08-26T12:04:01.797Z,20.92
2022-08-26T12:05:00.601Z,20.92
2022-08-26T12:06:00.904Z,20.89
2022-08-26T12:07:01.143Z,20.89
2022-08-26T12:08:05.188Z,20.89
2022-08-26T12:09:01.521Z,20.89
2022-08-26T12:10:02.292Z,20.89
2022-08-26T12:11:01.797Z,20.93
2022-08-26T12:12:10.206Z,20.93
2022-08-26T12:13:01.445Z,20.93
2022-08-26T12:14:05.302Z,20.93
2022-08-26T12:15:05.281Z,20.93
2022-08-26T12:16:00.491Z,21.04
2022-08-26T12:17:09.865Z,21.04
2022-08-26T12:18:10.380Z,21.04
2022-08-26T12:19:00.301Z,21.04
2022-08-26T12:20:00.381Z,21.04
2022-08-26T12:21:09.149Z,21.11
2022-08-26T12:22:02.449Z,21.11
2022-08-26T12:23:00.483Z,21.11
2022-08-26T12:24:02.039Z,21.11
2022-08-26T12:25:02.339Z,21.11
2022-08-26T12:26:04.103Z,21.21
2022-08-26T12:27:08.840Z,21.21
2022-08-26T12:28:02.730Z,21.21
2022-08-26T12:29:12.743Z,21.21
2022-08-26T12:30:01.286Z,21.21
2022-08-26T12:31:01.419Z,21.25
2022-08-26T12:32:09.288Z,21.25
2022-08-26T12:33:19.342Z,21.25
2022-08-26T12:34:02.407Z,21.25
2022-08-26T12:35:01.614Z,21.25
2022-08-26T12:36:00.929Z,21.29
2022-08-26T12:38:00.762Z,21.29
2022-08-26T12:39:10.227Z,21.29
2022-08-26T12:40:10.302Z,21.29
2022-08-26T12:41:00.307Z,21.35
2022-08-26T12:42:01.286Z,21.35
2022-08-26T12:43:01.952Z,21.35
2022-08-26T12:44:00.369Z,21.35
2022-08-26T12:45:03.130Z,21.35
2022-08-26T12:46:00.462Z,21.39
2022-08-26T12:47:01.798Z,21.39
2022-08-26T12:48:04.925Z,21.39
2022-08-26T12:49:00.355Z,21.39
2022-08-26T12:50:08.137Z,21.39
2022-08-26T12:51:01.267Z,21.49
2022-08-26T12:52:00.416Z,21.49
2022-08-26T12:53:10.188Z,21.49
2022-08-26T12:54:01.097Z,21.49
2022-08-26T12:55:04.083Z,21.49
2022-08-26T12:56:01.791Z,21.63
2022-08-26T12:57:07.819Z,21.63
2022-08-26T12:58:10.300Z,21.63
2022-08-26T12:59:03.756Z,21.63
2022-08-26T13:00:11.317Z,21.63